createdAt,value
2022-12-22T00:01:23.144Z,30.90
2022-12-22T00:04:11.907Z,31.83
2022-12-22T00:07:00.090Z,30.23
2022-12-22T00:09:49.065Z,30.27
2022-12-22T00:12:38.025Z,30.30
2022-12-22T00:15:32.393Z,30.40
2022-12-22T00:18:21.874Z,30.90
2022-12-22T00:21:09.848Z,31.08
2022-12-22T00:23:56.150Z,31.77
2022-12-22T00:26:44.443Z,38.22
2022-12-22T00:29:34.859Z,31.17
2022-12-22T00:32:22.271Z,28.02
2022-12-22T00:35:08.077Z,27.55
2022-12-22T00:37:56.188Z,35.20
2022-12-22T00:40:46.680Z,37.58
2022-12-22T00:43:35.027Z,35.10
2022-12-22T00:46:24.303Z,33.25
2022-12-22T00:49:10.068Z,30.75
2022-12-22T00:51:55.222Z,34.17
2022-12-22T00:54:41.557Z,26.92
2022-12-22T00:57:35.669Z,37.58
2022-12-22T01:00:33.266Z,30.02
2022-12-22T01:03:18.575Z,28.15
2022-12-22T01:06:07.875Z,32.60
2022-12-22T01:11:54.237Z,28.33
2022-12-22T01:14:40.106Z,33.63
2022-12-22T01:17:28.264Z,31.27
2022-12-22T01:20:13.863Z,23.77
2022-12-22T01:23:00.727Z,25.90
2022-12-22T01:25:46.386Z,26.60
2022-12-22T01:28:38.659Z,34.70
2022-12-22T01:31:34.804Z,27.80
2022-12-22T01:34:27.059Z,29.05
2022-12-22T01:37:18.494Z,28.75
2022-12-22T01:40:04.781Z,28.65
2022-12-22T01:42:53.660Z,27.52
2022-12-22T01:45:42.993Z,32.78
2022-12-22T01:51:22.117Z,30.95
2022-12-22T01:54:12.003Z,29.50
2022-12-22T01:57:06.608Z,27.42
2022-12-22T01:59:53.835Z,27.52
2022-12-22T02:02:43.506Z,32.47
2022-12-22T02:05:36.642Z,29.38
2022-12-22T02:08:38.911Z,31.58
2022-12-22T02:11:38.005Z,26.33
2022-12-22T02:14:39.175Z,27.52
2022-12-22T02:17:39.924Z,26.35
2022-12-22T02:20:43.597Z,25.63
2022-12-22T02:23:45.526Z,25.90
2022-12-22T02:26:46.500Z,27.00
2022-12-22T02:29:43.495Z,28.63
2022-12-22T02:32:32.032Z,27.40
2022-12-22T02:35:19.388Z,30.50
2022-12-22T02:38:18.158Z,24.88
2022-12-22T02:41:14.010Z,23.17
2022-12-22T02:44:19.438Z,27.70
2022-12-22T02:47:13.015Z,26.10
2022-12-22T02:50:10.059Z,28.70
2022-12-22T02:52:59.303Z,24.65
2022-12-22T02:55:46.605Z,27.98
2022-12-22T02:58:33.052Z,23.00
2022-12-22T03:01:24.815Z,25.52
2022-12-22T03:04:10.496Z,28.58
2022-12-22T03:06:57.876Z,26.02
2022-12-22T03:09:43.087Z,22.58
2022-12-22T03:12:31.619Z,23.92
2022-12-22T03:15:17.451Z,25.00
2022-12-22T03:18:04.346Z,26.50
2022-12-22T03:20:49.951Z,24.30
2022-12-22T03:23:37.730Z,24.33
2022-12-22T03:26:04.802Z,27.33
2022-12-22T03:28:31.967Z,23.63
2022-12-22T03:31:03.811Z,26.02
2022-12-22T03:33:32.979Z,28.42
2022-12-22T03:36:00.350Z,26.60
2022-12-22T03:38:27.611Z,28.75
2022-12-22T03:41:00.536Z,22.50
2022-12-22T03:43:46.689Z,27.38
2022-12-22T03:46:31.151Z,26.75
2022-12-22T03:49:13.081Z,24.25
2022-12-22T03:51:42.494Z,28.50
2022-12-22T03:54:11.593Z,29.85
2022-12-22T03:56:38.672Z,29.45
2022-12-22T03:59:09.295Z,30.30
2022-12-22T04:01:40.846Z,32.15
2022-12-22T04:04:13.312Z,31.02
2022-12-22T04:06:40.800Z,29.58
2022-12-22T04:09:09.783Z,33.58
2022-12-22T04:11:58.382Z,35.72
2022-12-22T04:14:33.088Z,25.33
2022-12-22T04:17:05.700Z,30.02
2022-12-22T04:19:34.523Z,25.40
2022-12-22T04:22:02.019Z,28.67
2022-12-22T04:24:30.393Z,32.92
2022-12-22T04:27:06.491Z,25.52
2022-12-22T04:29:34.558Z,31.92
2022-12-22T04:32:01.464Z,34.20
2022-12-22T04:34:35.390Z,33.90
2022-12-22T04:37:12.790Z,31.88
2022-12-22T04:39:43.935Z,32.28
2022-12-22T04:42:11.419Z,31.00
2022-12-22T04:44:41.152Z,30.77
2022-12-22T04:47:08.030Z,29.77
2022-12-22T04:49:36.555Z,37.42
2022-12-22T04:52:06.298Z,36.17
2022-12-22T04:54:33.551Z,29.70
2022-12-22T04:57:00.695Z,34.53
2022-12-22T04:59:31.474Z,37.83
2022-12-22T05:01:58.568Z,41.22
2022-12-22T05:04:29.074Z,33.75
2022-12-22T05:06:58.598Z,30.48
2022-12-22T05:09:27.906Z,29.95
2022-12-22T05:11:54.819Z,33.72
2022-12-22T05:14:22.464Z,30.55
2022-12-22T05:16:49.428Z,28.63
2022-12-22T05:19:16.677Z,29.98
2022-12-22T05:21:46.488Z,29.48
2022-12-22T05:24:17.346Z,33.40
2022-12-22T05:26:44.239Z,34.40
2022-12-22T05:29:16.473Z,36.70
2022-12-22T05:31:47.189Z,38.33
2022-12-22T05:34:17.746Z,51.20
2022-12-22T05:36:44.847Z,36.40
2022-12-22T05:39:12.005Z,29.52
2022-12-22T05:41:40.432Z,33.40
2022-12-22T05:44:07.761Z,35.40
2022-12-22T05:46:36.538Z,31.60
2022-12-22T05:51:39.667Z,36.00
2022-12-22T05:54:06.864Z,42.88
2022-12-22T05:56:35.931Z,33.58
2022-12-22T05:59:04.563Z,37.83
2022-12-22T06:01:34.088Z,38.90
2022-12-22T06:04:01.809Z,35.90
2022-12-22T06:06:28.896Z,33.88
2022-12-22T06:08:56.612Z,35.65
2022-12-22T06:11:26.487Z,36.92
2022-12-22T06:13:53.745Z,38.22
2022-12-22T06:16:22.227Z,42.50
2022-12-22T06:18:52.271Z,35.42
2022-12-22T06:23:55.018Z,35.58
2022-12-22T06:26:22.007Z,31.35
2022-12-22T06:28:49.307Z,47.65
2022-12-22T06:31:23.601Z,44.88
2022-12-22T06:33:52.394Z,33.10
2022-12-22T06:36:24.871Z,37.35
2022-12-22T06:38:52.030Z,37.03
2022-12-22T06:41:39.002Z,47.40
2022-12-22T06:44:09.092Z,42.45
2022-12-22T06:46:37.610Z,49.22
2022-12-22T06:49:07.666Z,54.95
2022-12-22T06:51:34.511Z,49.17
2022-12-22T06:54:01.847Z,47.75
2022-12-22T06:56:32.012Z,45.60
2022-12-22T06:58:59.352Z,51.25
2022-12-22T07:01:29.281Z,49.38
2022-12-22T07:03:58.352Z,47.78
2022-12-22T07:06:40.251Z,51.05
2022-12-22T07:09:07.379Z,51.38
2022-12-22T07:11:34.441Z,47.92
2022-12-22T07:14:01.669Z,41.55
2022-12-22T07:16:30.855Z,43.60
2022-12-22T07:19:00.487Z,47.85
2022-12-22T07:21:29.422Z,40.28
2022-12-22T07:23:56.839Z,39.65
2022-12-22T07:26:23.790Z,43.40
2022-12-22T07:28:52.802Z,41.47
2022-12-22T07:31:19.809Z,42.50
2022-12-22T07:33:47.235Z,37.20
2022-12-22T07:36:18.596Z,44.63
2022-12-22T07:38:47.787Z,48.78
2022-12-22T07:41:34.813Z,48.47
2022-12-22T07:44:03.410Z,42.38
2022-12-22T07:46:33.839Z,42.13
2022-12-22T07:49:19.690Z,51.00
2022-12-22T07:51:48.285Z,48.83
2022-12-22T07:54:16.732Z,41.00
2022-12-22T07:56:46.334Z,43.13
2022-12-22T07:59:14.142Z,46.78
2022-12-22T08:01:42.128Z,37.20
2022-12-22T08:04:13.498Z,40.20
2022-12-22T08:06:40.775Z,45.30
2022-12-22T08:09:13.511Z,44.42
2022-12-22T08:11:42.330Z,47.90
2022-12-22T08:14:10.787Z,45.65
2022-12-22T08:16:41.663Z,57.75
2022-12-22T08:19:09.045Z,53.85
2022-12-22T08:21:52.414Z,47.30
2022-12-22T08:24:31.333Z,48.65
2022-12-22T08:27:03.640Z,47.17
2022-12-22T08:29:33.982Z,50.03
2022-12-22T08:32:01.365Z,44.63
2022-12-22T08:34:29.084Z,45.63
2022-12-22T08:37:10.077Z,43.55
2022-12-22T08:39:46.499Z,43.85
2022-12-22T08:42:18.711Z,39.45
2022-12-22T08:44:47.327Z,43.53
2022-12-22T08:47:17.057Z,41.70
2022-12-22T08:49:44.841Z,40.78
2022-12-22T08:52:18.013Z,44.58
2022-12-22T08:54:50.586Z,41.05
2022-12-22T08:57:22.139Z,39.17
2022-12-22T08:59:49.410Z,51.35
2022-12-22T09:02:16.478Z,41.00
2022-12-22T09:04:43.817Z,43.45
2022-12-22T09:07:11.563Z,39.53
2022-12-22T09:09:38.750Z,50.90
2022-12-22T09:12:07.815Z,63.50
2022-12-22T09:17:04.584Z,38.20
2022-12-22T09:19:32.244Z,43.97
2022-12-22T09:21:59.124Z,45.45
2022-12-22T09:24:26.625Z,50.58
2022-12-22T09:26:53.797Z,45.97
2022-12-22T09:29:22.348Z,46.83
2022-12-22T09:31:52.146Z,51.80
2022-12-22T09:34:19.612Z,54.58
2022-12-22T09:36:51.435Z,44.15
2022-12-22T09:39:22.275Z,51.00
2022-12-22T09:41:59.468Z,89.20
2022-12-22T09:44:31.757Z,101.68
2022-12-22T09:47:01.691Z,176.02
2022-12-22T09:49:29.345Z,66.55
2022-12-22T09:52:00.408Z,48.80
2022-12-22T09:54:28.348Z,55.35
2022-12-22T09:56:56.458Z,47.42
2022-12-22T09:59:27.440Z,44.15
2022-12-22T10:02:25.582Z,43.17
2022-12-22T10:05:06.419Z,44.10
2022-12-22T10:07:35.874Z,45.08
2022-12-22T10:10:10.460Z,43.63
2022-12-22T10:12:37.346Z,54.75
2022-12-22T10:15:05.188Z,44.13
2022-12-22T10:17:34.576Z,48.05
2022-12-22T10:20:21.577Z,44.90
2022-12-22T10:22:51.291Z,49.58
2022-12-22T10:25:39.763Z,44.33
2022-12-22T10:28:19.714Z,46.40
2022-12-22T10:30:58.596Z,50.08
2022-12-22T10:33:34.046Z,48.28
2022-12-22T10:36:02.327Z,46.72
2022-12-22T10:38:37.194Z,51.55
2022-12-22T10:41:13.959Z,60.95
2022-12-22T10:43:48.171Z,48.58
2022-12-22T10:46:20.322Z,45.33
2022-12-22T10:48:48.812Z,52.88
2022-12-22T10:51:17.067Z,58.10
2022-12-22T10:53:48.031Z,64.60
2022-12-22T10:56:25.711Z,63.42
2022-12-22T10:58:56.047Z,54.25
2022-12-22T11:01:25.885Z,54.45
2022-12-22T11:03:54.312Z,64.68
2022-12-22T11:06:24.619Z,51.40
2022-12-22T11:09:23.789Z,49.25
2022-12-22T11:11:51.386Z,64.10
2022-12-22T11:14:30.455Z,51.58
2022-12-22T11:17:05.149Z,60.80
2022-12-22T11:20:27.308Z,69.03
2022-12-22T11:23:03.635Z,66.00
2022-12-22T11:25:45.040Z,58.40
2022-12-22T11:28:30.360Z,53.38
2022-12-22T11:31:17.134Z,54.28
2022-12-22T11:33:54.612Z,63.03
2022-12-22T11:36:37.418Z,54.63
2022-12-22T11:39:17.410Z,58.13
2022-12-22T11:42:01.054Z,63.40
2022-12-22T11:44:51.366Z,57.58
2022-12-22T11:47:30.379Z,57.15
2022-12-22T11:50:58.554Z,58.15
2022-12-22T11:53:44.447Z,55.70
2022-12-22T11:56:22.734Z,51.22
2022-12-22T11:59:19.145Z,50.60
2022-12-22T12:02:26.505Z,50.33
2022-12-22T12:05:27.039Z,48.88
2022-12-22T12:08:09.971Z,55.63
2022-12-22T12:10:47.403Z,62.85
2022-12-22T12:13:37.496Z,59.72
2022-12-22T12:16:37.751Z,54.50
2022-12-22T12:19:52.673Z,58.20
2022-12-22T12:22:39.671Z,57.67
2022-12-22T12:25:26.235Z,54.60
2022-12-22T12:28:19.756Z,62.33
2022-12-22T12:30:54.061Z,57.97
2022-12-22T12:33:30.718Z,56.63
2022-12-22T12:36:04.988Z,53.83
2022-12-22T12:39:06.935Z,56.20
2022-12-22T12:41:38.531Z,53.38
2022-12-22T12:44:13.057Z,53.05
2022-12-22T12:47:02.879Z,66.30
2022-12-22T12:50:02.751Z,56.63
2022-12-22T12:53:08.361Z,51.08
2022-12-22T12:56:01.035Z,52.30
2022-12-22T12:58:53.255Z,55.42
2022-12-22T13:02:00.985Z,53.95
2022-12-22T13:05:05.108Z,62.10
2022-12-22T13:08:07.935Z,54.08
2022-12-22T13:10:37.427Z,46.63
2022-12-22T13:13:07.599Z,52.88
2022-12-22T13:15:42.624Z,54.65
2022-12-22T13:18:49.488Z,57.97
2022-12-22T13:24:26.534Z,55.92
2022-12-22T13:26:59.025Z,56.85
2022-12-22T13:29:39.741Z,62.78
2022-12-22T13:32:19.309Z,62.47
2022-12-22T13:37:49.621Z,81.68
2022-12-22T13:40:19.376Z,92.65
2022-12-22T13:42:49.520Z,67.97
2022-12-22T13:45:23.130Z,84.55
2022-12-22T13:47:52.632Z,91.50
2022-12-22T13:52:54.414Z,71.28
2022-12-22T13:55:25.876Z,58.72
2022-12-22T13:57:58.427Z,57.58
2022-12-22T14:00:28.406Z,54.65
2022-12-22T14:02:55.895Z,55.78
2022-12-22T14:05:30.782Z,53.88
2022-12-22T14:08:01.751Z,59.58
2022-12-22T14:10:37.351Z,59.92
2022-12-22T14:13:14.638Z,72.22
2022-12-22T14:15:48.461Z,68.88
2022-12-22T14:18:17.796Z,68.70
2022-12-22T14:23:21.010Z,72.72
2022-12-22T14:25:49.905Z,74.05
2022-12-22T14:28:22.163Z,76.07
2022-12-22T14:30:51.147Z,79.30
2022-12-22T14:38:47.631Z,69.82
2022-12-22T14:44:27.908Z,83.57
2022-12-22T14:47:19.022Z,95.32
2022-12-22T14:49:49.768Z,90.53
2022-12-22T14:52:23.101Z,92.22
2022-12-22T14:54:53.246Z,95.80
2022-12-22T14:57:30.540Z,98.18
2022-12-22T15:00:00.168Z,93.30
2022-12-22T15:02:36.812Z,87.85
2022-12-22T15:05:16.183Z,98.90
2022-12-22T15:08:07.433Z,88.97
2022-12-22T15:10:40.000Z,80.88
2022-12-22T15:13:16.878Z,81.10
2022-12-22T15:15:44.189Z,81.05
2022-12-22T15:18:14.411Z,80.60
2022-12-22T15:20:42.049Z,94.30
2022-12-22T15:23:17.106Z,87.57
2022-12-22T15:25:45.913Z,86.80
2022-12-22T15:28:12.829Z,84.57
2022-12-22T15:30:40.559Z,91.00
2022-12-22T15:33:13.260Z,88.03
2022-12-22T15:35:41.731Z,97.55
2022-12-22T15:38:18.148Z,83.40
2022-12-22T15:40:45.924Z,95.65
2022-12-22T15:43:36.687Z,94.03
2022-12-22T15:46:06.249Z,91.53
2022-12-22T15:48:36.381Z,98.28
2022-12-22T15:51:07.668Z,94.45
2022-12-22T15:53:37.731Z,89.38
2022-12-22T15:56:06.703Z,105.40
2022-12-22T15:58:36.886Z,124.65
2022-12-22T16:01:08.763Z,165.73
2022-12-22T16:03:40.681Z,143.82
2022-12-22T16:06:15.324Z,99.60
2022-12-22T16:08:49.731Z,87.72
2022-12-22T16:11:20.279Z,88.63
2022-12-22T16:13:49.312Z,84.43
2022-12-22T16:16:16.663Z,90.97
2022-12-22T16:18:46.072Z,82.65
2022-12-22T16:21:18.369Z,75.32
2022-12-22T16:23:49.496Z,87.30
2022-12-22T16:26:22.533Z,77.72
2022-12-22T16:28:52.439Z,83.35
2022-12-22T16:31:21.811Z,85.13
2022-12-22T16:33:51.219Z,79.53
2022-12-22T16:36:18.625Z,81.80
2022-12-22T16:38:51.950Z,72.47
2022-12-22T16:41:23.850Z,86.88
2022-12-22T16:43:52.468Z,81.18
2022-12-22T16:46:23.808Z,79.95
2022-12-22T16:48:59.038Z,85.60
2022-12-22T16:51:30.756Z,71.57
2022-12-22T16:53:59.366Z,78.57
2022-12-22T16:56:27.048Z,76.38
2022-12-22T16:58:54.084Z,75.40
2022-12-22T17:01:34.930Z,74.57
2022-12-22T17:04:06.728Z,74.30
2022-12-22T17:06:39.454Z,70.25
2022-12-22T17:09:13.396Z,62.85
2022-12-22T17:11:46.482Z,78.38
2022-12-22T17:14:22.337Z,72.75
2022-12-22T17:16:53.010Z,70.97
2022-12-22T17:19:22.352Z,67.28
2022-12-22T17:21:51.745Z,62.53
2022-12-22T17:26:58.334Z,59.85
2022-12-22T17:29:25.628Z,66.20
2022-12-22T17:31:56.514Z,52.80
2022-12-22T17:34:23.979Z,58.50
2022-12-22T17:36:51.681Z,58.40
2022-12-22T17:39:21.714Z,57.35
2022-12-22T17:41:56.216Z,50.50
2022-12-22T17:44:27.806Z,50.45
2022-12-22T17:46:55.278Z,56.25
2022-12-22T17:49:22.776Z,55.25
2022-12-22T17:51:50.538Z,46.22
2022-12-22T17:54:24.071Z,54.80
2022-12-22T17:56:52.306Z,59.75
2022-12-22T17:59:19.282Z,55.33
2022-12-22T18:01:48.852Z,63.53
2022-12-22T18:04:16.992Z,55.10
2022-12-22T18:06:47.070Z,58.92
2022-12-22T18:09:23.503Z,46.05
2022-12-22T18:11:53.812Z,49.20
2022-12-22T18:14:28.934Z,49.00
2022-12-22T18:16:59.027Z,69.00
2022-12-22T18:19:28.626Z,94.72
2022-12-22T18:21:57.328Z,109.65
2022-12-22T18:24:25.723Z,117.35
2022-12-22T18:26:53.058Z,114.95
2022-12-22T18:29:20.817Z,88.93
2022-12-22T18:31:48.106Z,83.85
2022-12-22T18:34:18.035Z,55.80
2022-12-22T18:36:49.460Z,56.20
2022-12-22T18:39:23.146Z,51.50
2022-12-22T18:41:54.386Z,58.53
2022-12-22T18:44:21.198Z,55.03
2022-12-22T18:46:48.899Z,63.17
2022-12-22T18:49:16.204Z,60.03
2022-12-22T18:51:44.992Z,44.03
2022-12-22T18:54:34.813Z,49.80
2022-12-22T18:57:13.056Z,52.63
2022-12-22T18:59:44.518Z,50.33
2022-12-22T19:02:23.659Z,51.88
2022-12-22T19:04:53.107Z,50.03
2022-12-22T19:07:22.985Z,52.97
2022-12-22T19:09:50.231Z,48.90
2022-12-22T19:12:22.867Z,50.58
2022-12-22T19:15:05.027Z,45.92
2022-12-22T19:17:32.332Z,53.30
2022-12-22T19:20:01.502Z,47.88
2022-12-22T19:22:28.786Z,53.83
2022-12-22T19:25:03.066Z,48.97
2022-12-22T19:27:34.421Z,49.17
2022-12-22T19:30:05.168Z,52.42
2022-12-22T19:32:41.805Z,53.90
2022-12-22T19:35:16.123Z,57.95
2022-12-22T19:37:44.905Z,53.53
2022-12-22T19:40:13.142Z,49.88
2022-12-22T19:42:47.318Z,57.55
2022-12-22T19:45:21.891Z,52.28
2022-12-22T19:47:50.630Z,62.67
2022-12-22T19:50:19.639Z,50.80
2022-12-22T19:52:46.840Z,49.72
2022-12-22T19:55:21.053Z,51.00
2022-12-22T19:57:51.867Z,56.13
2022-12-22T20:00:21.934Z,61.78
2022-12-22T20:02:50.699Z,52.33
2022-12-22T20:05:38.493Z,41.03
2022-12-22T20:08:06.225Z,40.55
2022-12-22T20:10:35.522Z,47.03
2022-12-22T20:13:14.331Z,49.38
2022-12-22T20:15:44.410Z,51.45
2022-12-22T20:18:18.650Z,54.70
2022-12-22T20:21:03.985Z,52.15
2022-12-22T20:23:35.817Z,52.75
2022-12-22T20:26:08.358Z,52.50
2022-12-22T20:28:41.719Z,54.45
2022-12-22T20:31:12.381Z,61.08
2022-12-22T20:33:43.977Z,53.08
2022-12-22T20:36:23.920Z,62.45
2022-12-22T20:38:53.522Z,66.97
2022-12-22T20:41:21.369Z,76.38
2022-12-22T20:43:53.838Z,78.78
2022-12-22T20:46:26.129Z,66.30
2022-12-22T20:49:02.076Z,67.45
2022-12-22T20:51:43.958Z,73.65
2022-12-22T20:54:14.067Z,70.25
2022-12-22T20:56:48.790Z,63.88
2022-12-22T20:59:22.768Z,64.45
2022-12-22T21:01:52.537Z,58.78
2022-12-22T21:04:23.623Z,54.53
2022-12-22T21:06:52.634Z,52.17
2022-12-22T21:09:24.225Z,50.03
2022-12-22T21:11:51.658Z,55.42
2022-12-22T21:14:20.281Z,45.60
2022-12-22T21:16:48.735Z,51.72
2022-12-22T21:19:19.697Z,47.42
2022-12-22T21:21:46.694Z,46.47
2022-12-22T21:24:13.972Z,49.17
2022-12-22T21:26:43.106Z,45.83
2022-12-22T21:29:16.161Z,46.30
2022-12-22T21:31:44.831Z,61.95
2022-12-22T21:36:41.819Z,54.30
2022-12-22T21:39:20.452Z,49.88
2022-12-22T21:42:04.726Z,47.53
2022-12-22T21:44:34.490Z,49.13
2022-12-22T21:47:06.948Z,58.08
2022-12-22T21:49:34.514Z,50.58
2022-12-22T21:52:04.255Z,50.85
2022-12-22T21:54:34.295Z,66.13
2022-12-22T21:57:01.368Z,53.80
2022-12-22T21:59:33.747Z,64.75
2022-12-22T22:02:00.797Z,60.85
2022-12-22T22:04:29.570Z,55.75
2022-12-22T22:06:56.630Z,51.22
2022-12-22T22:09:25.931Z,53.40
2022-12-22T22:12:11.209Z,51.42
2022-12-22T22:14:38.685Z,55.97
2022-12-22T22:17:05.506Z,44.97
2022-12-22T22:19:36.552Z,52.15
2022-12-22T22:22:03.704Z,49.53
2022-12-22T22:24:31.477Z,51.33
2022-12-22T22:27:03.228Z,48.00
2022-12-22T22:29:30.565Z,53.20
2022-12-22T22:31:59.164Z,60.20
2022-12-22T22:34:26.647Z,48.90
2022-12-22T22:36:54.923Z,53.28
2022-12-22T22:39:25.328Z,48.53
2022-12-22T22:41:52.330Z,46.08
2022-12-22T22:44:19.622Z,52.05
2022-12-22T22:46:49.104Z,50.67
2022-12-22T22:49:22.799Z,49.45
2022-12-22T22:51:56.484Z,55.33
2022-12-22T22:54:24.083Z,55.78
2022-12-22T22:56:51.861Z,55.35
2022-12-22T22:59:22.063Z,57.83
2022-12-22T23:01:51.277Z,63.38
2022-12-22T23:04:18.598Z,47.17
2022-12-22T23:06:48.473Z,53.45
2022-12-22T23:09:17.089Z,47.38
2022-12-22T23:11:44.135Z,54.22
2022-12-22T23:14:11.495Z,48.63
2022-12-22T23:19:20.048Z,44.58
2022-12-22T23:21:50.019Z,43.80
2022-12-22T23:24:20.461Z,42.08
2022-12-22T23:26:48.045Z,44.78
2022-12-22T23:29:15.313Z,43.00
2022-12-22T23:31:44.460Z,49.30
2022-12-22T23:34:12.264Z,47.88
2022-12-22T23:36:42.029Z,46.10
2022-12-22T23:39:09.343Z,47.40
2022-12-22T23:41:37.595Z,59.97
2022-12-22T23:44:04.944Z,65.75
2022-12-22T23:46:32.000Z,62.90
2022-12-22T23:48:59.512Z,68.35
2022-12-22T23:51:28.511Z,63.42
2022-12-22T23:54:01.642Z,61.88
2022-12-22T23:56:29.411Z,70.07
2022-12-22T23:58:58.718Z,68.80
